createdAt,value
2019-03-30T00:05:18.177Z,11.40
2019-03-30T00:10:43.145Z,11.30
2019-03-30T00:16:07.460Z,11.30
2019-03-30T00:21:32.496Z,11.30
2019-03-30T00:26:57.826Z,11.20
2019-03-30T00:32:22.323Z,11.10
2019-03-30T00:37:48.382Z,11.10
2019-03-30T00:43:12.865Z,11.20
2019-03-30T00:48:38.025Z,11.10
2019-03-30T00:54:03.165Z,11.10
2019-03-30T00:59:28.297Z,11.00
2019-03-30T01:04:53.180Z,10.90
2019-03-30T01:10:18.221Z,10.80
2019-03-30T01:15:43.529Z,10.70
2019-03-30T01:21:08.538Z,10.70
2019-03-30T01:26:33.165Z,10.70
2019-03-30T01:37:32.619Z,10.50
2019-03-30T02:00:10.403Z,10.30
2019-03-30T02:05:34.742Z,10.40
2019-03-30T02:10:59.760Z,10.40
2019-03-30T02:16:24.531Z,10.40
2019-03-30T02:21:49.381Z,10.40
2019-03-30T02:27:14.383Z,10.40
2019-03-30T02:32:39.367Z,10.40
2019-03-30T02:38:03.967Z,10.40
2019-03-30T02:43:28.197Z,10.20
2019-03-30T02:48:53.141Z,10.10
2019-03-30T02:54:17.600Z,10.10
2019-03-30T02:59:42.758Z,10.10
2019-03-30T03:05:07.885Z,10.20
2019-03-30T03:10:32.781Z,10.10
2019-03-30T03:15:57.701Z,10.00
2019-03-30T03:21:22.204Z,9.90
2019-03-30T03:26:47.250Z,9.80
2019-03-30T03:32:12.564Z,9.80
2019-03-30T03:37:45.169Z,9.70
2019-03-30T03:43:04.026Z,9.60
2019-03-30T03:48:29.280Z,9.50
2019-03-30T03:53:54.265Z,9.50
2019-03-30T03:59:20.265Z,9.60
2019-03-30T04:04:48.656Z,9.60
2019-03-30T04:10:14.240Z,9.60
2019-03-30T04:15:39.872Z,9.60
2019-03-30T04:21:04.526Z,9.50
2019-03-30T04:26:29.674Z,9.50
2019-03-30T04:31:54.015Z,9.40
2019-03-30T04:37:19.043Z,9.30
2019-03-30T04:42:44.067Z,9.20
2019-03-30T04:48:08.685Z,9.30
2019-03-30T04:53:33.394Z,9.30
2019-03-30T04:58:58.500Z,9.30
2019-03-30T05:04:23.442Z,9.20
2019-03-30T05:09:48.275Z,9.10
2019-03-30T05:15:14.740Z,9.10
2019-03-30T05:20:39.949Z,9.10
2019-03-30T05:26:04.470Z,9.20
2019-03-30T05:31:29.557Z,9.40
2019-03-30T05:36:54.483Z,9.40
2019-03-30T05:42:19.490Z,9.40
2019-03-30T05:48:03.169Z,9.40
2019-03-30T05:53:28.041Z,9.40
2019-03-30T05:58:52.789Z,9.40
2019-03-30T06:04:17.610Z,9.30
2019-03-30T06:09:43.085Z,9.30
2019-03-30T06:15:07.861Z,9.20
2019-03-30T06:20:32.480Z,9.20
2019-03-30T06:25:57.382Z,9.10
2019-03-30T06:31:22.435Z,9.20
2019-03-30T06:36:47.210Z,9.30
2019-03-30T06:42:12.626Z,9.30
2019-03-30T06:47:37.082Z,9.40
2019-03-30T06:53:01.872Z,9.50
2019-03-30T06:58:26.893Z,9.60
2019-03-30T07:03:52.212Z,9.60
2019-03-30T07:09:19.057Z,9.70
2019-03-30T07:14:46.742Z,9.80
2019-03-30T07:20:15.583Z,9.90
2019-03-30T07:25:40.387Z,10.00
2019-03-30T07:31:05.502Z,10.00
2019-03-30T07:36:30.667Z,10.10
2019-03-30T07:41:55.187Z,10.30
2019-03-30T07:47:20.177Z,10.40
2019-03-30T07:52:45.062Z,10.50
2019-03-30T07:58:10.224Z,10.70
2019-03-30T08:03:35.276Z,10.80
2019-03-30T08:09:00.007Z,10.90
2019-03-30T08:14:25.087Z,11.10
2019-03-30T08:19:50.816Z,11.30
2019-03-30T08:25:16.103Z,11.50
2019-03-30T08:30:41.312Z,11.80
2019-03-30T08:36:06.158Z,12.10
2019-03-30T08:41:31.634Z,12.40
2019-03-30T08:46:57.266Z,12.60
2019-03-30T08:52:22.293Z,13.00
2019-03-30T08:57:46.790Z,13.30
2019-03-30T09:03:11.924Z,13.60
2019-03-30T09:08:37.151Z,13.90
2019-03-30T09:14:02.584Z,14.10
2019-03-30T09:19:28.102Z,14.30
2019-03-30T09:24:53.002Z,14.50
2019-03-30T09:30:18.251Z,14.70
2019-03-30T09:35:43.225Z,14.90
2019-03-30T09:41:08.808Z,15.00
2019-03-30T09:46:33.726Z,15.10
2019-03-30T09:51:58.447Z,15.20
2019-03-30T09:57:23.270Z,15.40
2019-03-30T10:02:47.751Z,15.50
2019-03-30T10:08:12.771Z,15.60
2019-03-30T10:13:37.706Z,15.70
2019-03-30T10:19:02.824Z,15.80
2019-03-30T10:24:37.985Z,15.80
2019-03-30T10:29:55.117Z,15.80
2019-03-30T10:35:19.695Z,15.90
2019-03-30T10:40:44.737Z,15.90
2019-03-30T10:46:09.889Z,15.90
2019-03-30T10:51:34.889Z,16.00
2019-03-30T10:56:59.615Z,16.10
2019-03-30T11:02:24.839Z,16.30
2019-03-30T11:07:49.699Z,16.40
2019-03-30T11:13:14.896Z,16.50
2019-03-30T11:18:39.536Z,16.40
2019-03-30T11:24:06.705Z,16.40
2019-03-30T11:29:31.264Z,16.40
2019-03-30T11:34:56.375Z,16.60
2019-03-30T11:40:21.502Z,16.70
2019-03-30T11:45:46.500Z,16.80
2019-03-30T11:51:11.795Z,16.90
2019-03-30T11:56:36.690Z,16.80
2019-03-30T12:02:01.917Z,16.70
2019-03-30T12:07:26.648Z,16.80
2019-03-30T12:12:51.940Z,16.80
2019-03-30T12:18:17.053Z,16.80
2019-03-30T12:23:42.855Z,16.80
2019-03-30T12:29:08.878Z,16.80
2019-03-30T12:34:33.875Z,16.80
2019-03-30T12:39:59.124Z,16.70
2019-03-30T12:45:24.119Z,16.60
2019-03-30T12:50:50.486Z,16.60
2019-03-30T12:56:15.742Z,16.50
2019-03-30T13:01:40.494Z,16.60
2019-03-30T13:07:06.032Z,16.60
2019-03-30T13:12:31.340Z,16.70
2019-03-30T13:17:56.183Z,16.70
2019-03-30T13:23:20.923Z,16.70
2019-03-30T13:28:45.712Z,16.70
2019-03-30T13:34:11.092Z,16.80
2019-03-30T13:39:36.671Z,17.10
2019-03-30T13:45:03.361Z,17.20
2019-03-30T13:50:31.001Z,17.20
2019-03-30T13:55:54.621Z,17.20
2019-03-30T14:01:19.668Z,17.20
2019-03-30T14:06:44.455Z,17.30
2019-03-30T14:12:29.708Z,17.60
2019-03-30T14:17:55.178Z,17.90
2019-03-30T14:23:20.111Z,18.10
2019-03-30T14:28:44.856Z,18.30
2019-03-30T14:34:10.043Z,18.50
2019-03-30T14:39:35.356Z,18.50
2019-03-30T14:45:00.377Z,18.60
2019-03-30T14:50:25.407Z,18.70
2019-03-30T14:55:50.173Z,18.80
2019-03-30T15:01:15.118Z,18.70
2019-03-30T15:06:40.552Z,18.80
2019-03-30T15:12:05.711Z,18.60
2019-03-30T15:17:30.911Z,18.60
2019-03-30T15:22:56.319Z,18.50
2019-03-30T15:28:21.481Z,18.40
2019-03-30T15:33:46.301Z,18.50
2019-03-30T15:39:10.583Z,18.60
2019-03-30T15:44:35.358Z,18.50
2019-03-30T15:50:00.837Z,18.40
2019-03-30T15:55:25.658Z,18.30
2019-03-30T16:00:50.662Z,18.30
2019-03-30T16:06:16.106Z,18.30
2019-03-30T16:11:41.252Z,18.30
2019-03-30T16:17:06.611Z,18.20
2019-03-30T16:22:31.874Z,18.20
2019-03-30T16:27:56.870Z,18.10
2019-03-30T16:33:21.722Z,18.00
2019-03-30T16:39:06.997Z,17.90
2019-03-30T16:44:31.723Z,17.90
2019-03-30T16:49:56.773Z,18.00
2019-03-30T16:55:21.731Z,18.00
2019-03-30T17:00:56.504Z,17.90
2019-03-30T17:06:13.156Z,17.90
2019-03-30T17:11:38.729Z,17.90
2019-03-30T17:17:04.134Z,17.90
2019-03-30T17:22:30.562Z,17.80
2019-03-30T17:27:58.475Z,17.80
2019-03-30T17:33:21.733Z,17.80
2019-03-30T17:38:46.641Z,17.80
2019-03-30T17:44:11.906Z,17.70
2019-03-30T17:49:37.327Z,17.70
2019-03-30T17:55:02.927Z,17.70
2019-03-30T18:00:27.860Z,17.60
2019-03-30T18:05:53.095Z,17.60
2019-03-30T18:11:18.435Z,17.50
2019-03-30T18:16:43.602Z,17.40
2019-03-30T18:22:08.468Z,17.40
2019-03-30T18:27:33.514Z,17.30
2019-03-30T18:32:58.767Z,17.30
2019-03-30T18:38:23.927Z,17.20
2019-03-30T18:43:49.943Z,17.20
2019-03-30T18:49:15.148Z,17.10
2019-03-30T18:54:40.789Z,17.10
2019-03-30T19:00:07.128Z,16.90
2019-03-30T19:05:32.252Z,16.90
2019-03-30T19:10:57.121Z,17.10
2019-03-30T19:16:22.346Z,17.00
2019-03-30T19:21:47.932Z,17.00
2019-03-30T19:27:13.563Z,17.00
2019-03-30T19:32:39.199Z,17.00
2019-03-30T19:38:04.527Z,16.90
2019-03-30T19:43:29.629Z,16.90
2019-03-30T19:48:54.390Z,16.90
2019-03-30T19:54:20.001Z,16.80
2019-03-30T19:59:45.116Z,16.70
2019-03-30T20:05:10.608Z,16.60
2019-03-30T20:10:36.097Z,16.50
2019-03-30T20:16:01.034Z,16.40
2019-03-30T20:21:25.672Z,16.30
2019-03-30T20:26:50.954Z,16.20
2019-03-30T20:32:16.014Z,16.10
2019-03-30T20:37:41.474Z,16.10
2019-03-30T20:43:06.389Z,16.00
2019-03-30T20:48:31.210Z,15.90
2019-03-30T20:53:55.794Z,15.90
2019-03-30T20:59:20.848Z,15.80
2019-03-30T21:04:45.540Z,15.70
2019-03-30T21:10:10.742Z,15.70
2019-03-30T21:15:36.520Z,15.60
2019-03-30T21:21:01.818Z,15.60
2019-03-30T21:26:28.584Z,15.50
2019-03-30T21:31:53.672Z,15.50
2019-03-30T21:37:21.802Z,15.50
2019-03-30T21:42:46.458Z,15.40
2019-03-30T21:48:11.231Z,15.40
2019-03-30T21:53:36.559Z,15.40
2019-03-30T21:59:01.078Z,15.30
2019-03-30T22:04:26.150Z,15.20
2019-03-30T22:09:51.628Z,15.20
2019-03-30T22:15:19.827Z,15.20
2019-03-30T22:20:44.479Z,15.10
2019-03-30T22:26:10.370Z,15.10
2019-03-30T22:31:35.656Z,15.00
2019-03-30T22:37:01.343Z,14.90
2019-03-30T22:42:26.520Z,14.70
2019-03-30T22:47:51.504Z,14.70
2019-03-30T22:53:16.514Z,14.60
2019-03-30T22:58:41.550Z,14.60
2019-03-30T23:04:06.454Z,14.70
2019-03-30T23:09:31.551Z,14.70
2019-03-30T23:14:56.399Z,14.80
2019-03-30T23:20:21.308Z,14.80
2019-03-30T23:25:46.190Z,14.70
2019-03-30T23:31:11.245Z,14.50
2019-03-30T23:36:36.339Z,14.40
2019-03-30T23:42:00.979Z,14.50
2019-03-30T23:47:25.731Z,14.50
2019-03-30T23:52:50.338Z,14.50
2019-03-30T23:58:14.934Z,14.50
